createdAt,value
2023-01-31T00:24:02.507Z,24.20
2023-01-31T00:26:32.318Z,24.60
2023-01-31T00:29:01.450Z,22.60
2023-01-31T00:31:31.897Z,25.40
2023-01-31T00:34:00.121Z,24.30
2023-01-31T00:36:30.829Z,23.40
2023-01-31T00:39:00.473Z,22.80
2023-01-31T00:41:29.909Z,25.30
2023-01-31T00:44:00.637Z,22.00
2023-01-31T00:46:29.292Z,23.30
2023-01-31T00:48:57.293Z,24.40
2023-01-31T00:51:26.810Z,23.60
2023-01-31T00:53:54.861Z,23.00
2023-01-31T00:56:23.629Z,22.30
2023-01-31T00:58:52.563Z,22.90
2023-01-31T01:01:27.403Z,24.60
2023-01-31T01:03:56.189Z,22.50
2023-01-31T01:06:24.259Z,24.80
2023-01-31T01:08:53.146Z,25.50
2023-01-31T01:11:26.135Z,22.80
2023-01-31T01:13:54.224Z,23.70
2023-01-31T01:16:34.323Z,25.70
2023-01-31T01:19:05.781Z,19.40
2023-01-31T01:21:39.444Z,24.80
2023-01-31T01:24:11.509Z,25.50
2023-01-31T01:26:40.722Z,22.60
2023-01-31T01:29:08.836Z,24.50
2023-01-31T01:31:39.262Z,25.90
2023-01-31T01:34:09.542Z,23.40
2023-01-31T01:36:39.796Z,25.30
2023-01-31T01:39:11.642Z,26.90
2023-01-31T01:41:39.624Z,29.00
2023-01-31T01:44:46.970Z,24.20
2023-01-31T01:47:19.131Z,24.60
2023-01-31T01:49:53.842Z,26.00
2023-01-31T01:52:22.755Z,25.90
2023-01-31T01:54:53.942Z,24.40
2023-01-31T01:57:26.637Z,27.30
2023-01-31T02:00:00.903Z,27.80
2023-01-31T02:02:29.937Z,27.30
2023-01-31T02:04:57.880Z,27.90
2023-01-31T02:07:26.728Z,23.30
2023-01-31T02:10:02.678Z,25.70
2023-01-31T02:12:30.897Z,25.00
2023-01-31T02:15:00.562Z,25.00
2023-01-31T02:17:29.621Z,26.90
2023-01-31T02:20:36.964Z,31.30
2023-01-31T02:23:24.929Z,29.50
2023-01-31T02:26:17.772Z,29.20
2023-01-31T02:29:12.634Z,27.00
2023-01-31T02:31:59.292Z,27.20
2023-01-31T02:34:34.068Z,26.10
2023-01-31T02:37:20.227Z,27.50
2023-01-31T02:40:06.403Z,24.40
2023-01-31T02:43:01.475Z,24.50
2023-01-31T02:45:59.309Z,27.10
2023-01-31T02:48:46.645Z,27.20
2023-01-31T02:51:17.344Z,27.60
2023-01-31T02:54:08.536Z,25.90
2023-01-31T02:56:37.196Z,27.50
2023-01-31T02:59:22.053Z,27.10
2023-01-31T03:01:56.203Z,27.60
2023-01-31T03:04:24.209Z,22.50
2023-01-31T03:07:00.393Z,24.70
2023-01-31T03:09:40.580Z,22.50
2023-01-31T03:12:33.584Z,25.10
2023-01-31T03:15:15.277Z,22.30
2023-01-31T03:17:58.694Z,24.20
2023-01-31T03:20:32.755Z,25.30
2023-01-31T03:23:03.952Z,25.60
2023-01-31T03:25:33.417Z,23.90
2023-01-31T03:28:06.494Z,23.70
2023-01-31T03:30:42.235Z,24.50
2023-01-31T03:33:17.193Z,23.90
2023-01-31T03:35:49.273Z,26.00
2023-01-31T03:40:57.843Z,23.80
2023-01-31T03:43:34.735Z,26.20
2023-01-31T03:46:08.267Z,26.00
2023-01-31T03:48:39.263Z,25.50
2023-01-31T03:51:08.913Z,27.90
2023-01-31T03:53:40.023Z,25.70
2023-01-31T03:56:13.836Z,24.40
2023-01-31T03:58:44.842Z,38.50
2023-01-31T04:01:12.958Z,23.50
2023-01-31T04:03:43.174Z,27.60
2023-01-31T04:06:12.176Z,32.20
2023-01-31T04:08:40.420Z,26.40
2023-01-31T04:11:11.595Z,23.90
2023-01-31T04:16:09.642Z,29.80
2023-01-31T04:18:38.835Z,24.30
2023-01-31T04:21:07.279Z,24.30
2023-01-31T04:23:35.226Z,23.60
2023-01-31T04:26:03.184Z,23.70
2023-01-31T04:28:32.103Z,24.00
2023-01-31T04:30:59.979Z,23.80
2023-01-31T04:33:27.939Z,24.10
2023-01-31T04:35:56.037Z,24.00
2023-01-31T04:38:24.147Z,30.40
2023-01-31T04:40:54.572Z,38.00
2023-01-31T04:43:22.498Z,64.40
2023-01-31T04:45:50.403Z,50.50
2023-01-31T04:48:18.300Z,40.10
2023-01-31T04:50:46.308Z,24.90
2023-01-31T04:53:14.193Z,27.70
2023-01-31T04:55:42.087Z,28.40
2023-01-31T04:58:10.242Z,35.70
2023-01-31T05:00:38.395Z,31.50
2023-01-31T05:03:06.559Z,29.20
2023-01-31T05:05:36.356Z,29.50
2023-01-31T05:08:05.621Z,30.10
2023-01-31T05:10:34.410Z,29.80
2023-01-31T05:13:02.426Z,29.30
2023-01-31T05:15:32.775Z,27.10
2023-01-31T05:18:03.430Z,26.40
2023-01-31T05:20:38.400Z,27.50
2023-01-31T05:23:06.856Z,27.90
2023-01-31T05:25:36.078Z,29.10
2023-01-31T05:28:04.819Z,29.90
2023-01-31T05:30:33.319Z,29.30
2023-01-31T05:33:01.747Z,27.50
2023-01-31T06:27:23.507Z,28.40
2023-01-31T06:29:51.777Z,23.70
2023-01-31T06:32:19.967Z,25.40
2023-01-31T06:49:21.396Z,25.40
2023-01-31T06:51:53.103Z,26.10
2023-01-31T06:54:20.998Z,25.50
2023-01-31T06:56:49.059Z,23.20
2023-01-31T06:59:17.292Z,42.90
2023-01-31T07:01:45.382Z,26.70
2023-01-31T07:04:13.721Z,26.30
2023-01-31T07:06:41.545Z,29.70
2023-01-31T07:09:09.488Z,26.90
2023-01-31T07:11:38.444Z,26.40
2023-01-31T07:14:09.785Z,28.80
2023-01-31T07:16:41.052Z,25.60
2023-01-31T07:19:08.936Z,28.70
2023-01-31T07:21:37.051Z,30.20
2023-01-31T07:24:05.263Z,27.60
2023-01-31T07:26:33.600Z,26.50
2023-01-31T07:29:01.634Z,27.70
2023-01-31T07:31:30.083Z,25.60
2023-01-31T07:33:58.002Z,29.70
2023-01-31T07:36:26.797Z,27.40
2023-01-31T07:38:56.038Z,31.10
2023-01-31T07:41:24.509Z,28.20
2023-01-31T07:43:52.433Z,27.50
2023-01-31T07:46:20.988Z,27.10
2023-01-31T07:48:49.766Z,29.50
2023-01-31T07:51:18.807Z,29.30
2023-01-31T07:53:46.873Z,30.40
2023-01-31T07:56:16.524Z,28.30
2023-01-31T07:58:45.612Z,31.20
2023-01-31T08:01:36.827Z,29.10
2023-01-31T08:04:19.869Z,30.10
2023-01-31T08:06:48.770Z,28.50
2023-01-31T08:09:16.624Z,27.20
2023-01-31T08:11:46.089Z,32.00
2023-01-31T08:14:14.260Z,30.40
2023-01-31T08:16:42.141Z,29.90
2023-01-31T08:19:10.076Z,30.30
2023-01-31T08:21:38.066Z,31.20
2023-01-31T08:24:06.242Z,29.50
2023-01-31T08:26:34.505Z,29.40
2023-01-31T08:29:02.321Z,28.30
2023-01-31T08:31:30.507Z,40.60
2023-01-31T08:33:58.630Z,40.90
2023-01-31T08:36:29.502Z,57.40
2023-01-31T08:38:58.014Z,36.00
2023-01-31T08:41:26.789Z,35.30
2023-01-31T08:43:58.069Z,32.10
2023-01-31T08:46:31.496Z,42.70
2023-01-31T08:49:00.734Z,33.80
2023-01-31T08:51:29.084Z,30.30
2023-01-31T08:53:58.219Z,32.10
2023-01-31T08:56:27.877Z,42.30
2023-01-31T08:58:57.298Z,31.00
2023-01-31T09:01:26.165Z,33.20
2023-01-31T09:03:57.090Z,31.80
2023-01-31T09:06:27.102Z,30.90
2023-01-31T09:09:00.101Z,31.50
2023-01-31T09:11:30.354Z,31.10
2023-01-31T09:13:59.065Z,29.60
2023-01-31T09:16:27.196Z,31.10
2023-01-31T09:18:56.307Z,28.80
2023-01-31T09:21:24.448Z,29.70
2023-01-31T09:23:57.394Z,28.00
2023-01-31T09:26:25.310Z,35.50
2023-01-31T09:28:53.399Z,31.40
2023-01-31T09:31:21.622Z,28.20
2023-01-31T09:33:49.799Z,28.60
2023-01-31T09:36:20.647Z,27.60
2023-01-31T09:38:49.152Z,26.30
2023-01-31T09:41:19.960Z,27.10
2023-01-31T09:43:50.873Z,28.30
2023-01-31T09:46:19.802Z,28.70
2023-01-31T09:48:51.203Z,31.70
2023-01-31T09:51:19.891Z,30.30
2023-01-31T09:53:47.899Z,28.40
2023-01-31T09:56:32.135Z,27.40
2023-01-31T09:59:12.929Z,27.60
2023-01-31T10:01:59.298Z,35.40
2023-01-31T10:04:44.792Z,27.80
2023-01-31T10:07:16.249Z,32.00
2023-01-31T10:09:46.805Z,29.70
2023-01-31T10:12:17.945Z,31.30
2023-01-31T10:14:50.303Z,30.10
2023-01-31T10:17:28.027Z,30.10
2023-01-31T10:20:05.950Z,28.80
2023-01-31T10:22:46.765Z,27.70
2023-01-31T10:25:51.592Z,27.30
2023-01-31T10:28:23.748Z,30.30
2023-01-31T10:31:06.752Z,31.20
2023-01-31T10:33:43.866Z,31.80
2023-01-31T10:36:19.613Z,28.70
2023-01-31T10:39:14.675Z,30.00
2023-01-31T10:42:03.813Z,35.30
2023-01-31T10:44:54.940Z,28.30
2023-01-31T10:47:33.136Z,28.10
2023-01-31T10:50:11.820Z,26.40
2023-01-31T10:52:53.899Z,29.90
2023-01-31T10:55:46.298Z,28.70
2023-01-31T10:58:16.534Z,25.10
2023-01-31T11:00:46.932Z,26.70
2023-01-31T11:03:15.164Z,26.60
2023-01-31T11:05:52.119Z,26.60
2023-01-31T11:08:26.724Z,26.70
2023-01-31T11:10:55.483Z,32.50
2023-01-31T11:13:23.686Z,26.70
2023-01-31T11:15:55.547Z,27.80
2023-01-31T11:18:30.929Z,27.40
2023-01-31T11:20:59.867Z,28.60
2023-01-31T11:23:29.615Z,28.10
2023-01-31T11:25:57.793Z,27.30
2023-01-31T11:28:35.890Z,29.00
2023-01-31T11:31:08.762Z,30.40
2023-01-31T11:33:47.644Z,29.00
2023-01-31T11:36:17.457Z,28.30
2023-01-31T11:38:46.146Z,28.00
2023-01-31T11:41:27.982Z,27.80
2023-01-31T11:44:10.423Z,27.70
2023-01-31T11:46:51.228Z,34.40
2023-01-31T11:49:40.672Z,42.80
2023-01-31T12:05:13.945Z,49.60
2023-01-31T12:07:50.339Z,41.80
2023-01-31T12:10:41.561Z,52.20
2023-01-31T12:16:14.548Z,37.70
2023-01-31T12:18:55.552Z,32.60
2023-01-31T12:21:23.398Z,31.00
2023-01-31T12:23:57.939Z,29.40
2023-01-31T12:26:41.965Z,28.50
2023-01-31T12:29:27.234Z,26.40
2023-01-31T12:32:28.308Z,26.90
2023-01-31T12:35:08.902Z,30.20
2023-01-31T12:37:58.039Z,30.20
2023-01-31T12:40:39.020Z,28.70
2023-01-31T12:43:32.431Z,31.10
2023-01-31T12:46:13.047Z,31.90
2023-01-31T12:48:47.793Z,32.60
2023-01-31T12:51:20.730Z,32.20
2023-01-31T12:53:55.131Z,31.60
2023-01-31T12:56:42.016Z,29.80
2023-01-31T12:59:42.227Z,30.40
2023-01-31T13:04:47.601Z,29.80
2023-01-31T13:07:39.044Z,28.80
2023-01-31T13:10:14.884Z,31.90
2023-01-31T13:12:42.799Z,28.50
2023-01-31T13:15:42.478Z,30.10
2023-01-31T13:18:10.539Z,28.70
2023-01-31T13:20:45.854Z,29.50
2023-01-31T13:23:23.533Z,31.30
2023-01-31T13:25:55.009Z,27.50
2023-01-31T13:28:25.583Z,30.10
2023-01-31T13:30:59.124Z,33.10
2023-01-31T13:33:37.099Z,30.50
2023-01-31T13:36:57.617Z,29.60
2023-01-31T13:39:55.292Z,27.80
2023-01-31T13:42:23.339Z,27.10
